Time;durP1;ratioP1;P1;durP2;ratioP2;P2;SDS_P1;SDS_P2;PMS_P1;PMS_P2;Temp;Humidity;BMP_temperature;BMP_pressure;BME280_temperature;BME280_humidity;BME280_pressure;Samples;Min_cycle;Max_cycle;Signal;HPM_P1;HPM_P2
2021/12/02 00:01:19;;;;;;;0.50;0.50;;;21.00;48.40;;;;;;5024879;28;20045;-62
2021/12/02 00:03:46;;;;;;;0.75;0.57;;;21.00;48.40;;;;;;5027446;28;20104;-59
2021/12/02 00:06:14;;;;;;;0.70;0.50;;;21.00;48.40;;;;;;5021452;28;20033;-59
2021/12/02 00:08:40;;;;;;;1.00;0.43;;;21.00;48.40;;;;;;5030008;28;20059;-59
2021/12/02 00:11:06;;;;;;;0.40;0.40;;;21.00;48.40;;;;;;5020701;28;20307;-59
2021/12/02 00:16:29;;;;;;;0.52;0.40;;;21.00;48.50;;;;;;5023677;28;20025;-63
2021/12/02 00:21:44;;;;;;;0.57;0.40;;;21.00;48.50;;;;;;5029047;28;20749;-62
2021/12/02 00:24:14;;;;;;;0.40;0.40;;;20.90;48.40;;;;;;5021952;28;20830;-59
2021/12/02 00:26:40;;;;;;;;;;;20.90;48.50;;;;;;5025370;28;20036;-58
2021/12/02 00:29:08;;;;;;;0.95;0.57;;;20.90;48.50;;;;;;5024566;28;19970;-59
2021/12/02 00:31:36;;;;;;;0.60;0.43;;;20.90;48.50;;;;;;5027132;28;20057;-60
2021/12/02 00:34:09;;;;;;;0.77;0.40;;;20.90;48.50;;;;;;5020865;28;20025;-60
2021/12/02 00:36:37;;;;;;;0.50;0.40;;;20.90;48.50;;;;;;5021752;28;20427;-59
2021/12/02 00:39:09;;;;;;;0.30;0.30;;;20.90;48.50;;;;;;5023979;28;20107;-63
2021/12/02 00:41:35;;;;;;;0.50;0.32;;;20.90;48.50;;;;;;5018528;28;20034;-62
2021/12/02 00:44:01;;;;;;;0.40;0.40;;;20.90;48.60;;;;;;5023668;28;20044;-59
2021/12/02 00:46:32;;;;;;;0.40;0.40;;;20.90;49.10;;;;;;5024654;28;20646;-59
2021/12/02 00:49:01;;;;;;;0.98;0.60;;;20.90;48.60;;;;;;5028266;28;20060;-58
2021/12/02 00:51:28;;;;;;;0.60;0.60;;;20.80;48.50;;;;;;5023459;28;20117;-63
2021/12/02 00:53:55;;;;;;;0.63;0.45;;;20.80;48.50;;;;;;5022825;28;20048;-62
2021/12/02 00:56:25;;;;;;;0.77;0.50;;;20.80;48.60;;;;;;5022759;28;20049;-61
2021/12/02 00:58:52;;;;;;;0.40;0.40;;;20.80;48.60;;;;;;5025186;28;20033;-60
2021/12/02 01:01:19;;;;;;;0.65;0.45;;;20.80;48.60;;;;;;5026646;28;20501;-63
2021/12/02 01:03:47;;;;;;;0.88;0.55;;;20.80;48.60;;;;;;5028429;28;20178;-61
2021/12/02 01:06:12;;;;;;;0.68;0.50;;;20.80;48.60;;;;;;5022166;28;20460;-61
2021/12/02 01:08:40;;;;;;;0.90;0.40;;;20.80;48.60;;;;;;5025874;28;20029;-62
2021/12/02 01:11:07;;;;;;;1.00;0.50;;;20.80;48.60;;;;;;5016762;28;20026;-61
2021/12/02 01:13:33;;;;;;;0.35;0.35;;;20.80;48.70;;;;;;5028222;28;20623;-60
2021/12/02 01:16:01;;;;;;;0.40;0.40;;;20.80;48.60;;;;;;5025902;28;20029;-60
2021/12/02 01:18:27;;;;;;;0.43;0.40;;;20.70;48.60;;;;;;5023840;28;20084;-59
2021/12/02 01:20:53;;;;;;;1.52;0.45;;;20.80;48.70;;;;;;5022692;28;20038;-61
2021/12/02 01:23:20;;;;;;;0.47;0.40;;;20.70;48.60;;;;;;5025199;28;20029;-59
2021/12/02 01:25:53;;;;;;;0.60;0.50;;;20.70;48.60;;;;;;5020417;28;20510;-60
2021/12/02 01:28:21;;;;;;;0.52;0.40;;;20.70;48.60;;;;;;5026113;28;20663;-62
2021/12/02 01:30:48;;;;;;;0.65;0.47;;;20.70;48.60;;;;;;5023307;28;20481;-58
2021/12/02 01:33:15;;;;;;;0.60;0.43;;;20.70;48.70;;;;;;5028740;28;20036;-59
2021/12/02 01:35:43;;;;;;;0.57;0.40;;;20.70;48.70;;;;;;5024809;28;20077;-62
2021/12/02 01:38:10;;;;;;;0.95;0.40;;;20.70;48.70;;;;;;5026568;28;20029;-63
2021/12/02 01:40:36;;;;;;;0.95;0.52;;;20.70;48.70;;;;;;5023009;28;20030;-61
2021/12/02 01:43:02;;;;;;;0.50;0.50;;;20.70;48.70;;;;;;5023909;28;20037;-59
2021/12/02 01:45:29;;;;;;;0.80;0.50;;;20.60;48.60;;;;;;5025943;28;20768;-59
2021/12/02 01:47:57;;;;;;;0.40;0.40;;;20.70;48.70;;;;;;5025239;28;20422;-60
2021/12/02 01:50:25;;;;;;;0.73;0.50;;;20.60;48.70;;;;;;5027481;28;20052;-60
2021/12/02 01:53:01;;;;;;;0.90;0.50;;;20.60;48.70;;;;;;5020147;28;20110;-59
2021/12/02 01:55:31;;;;;;;0.45;0.45;;;20.60;48.70;;;;;;5020030;28;20028;-61
2021/12/02 01:58:00;;;;;;;0.75;0.40;;;20.60;48.70;;;;;;5017303;28;20033;-60
2021/12/02 02:00:32;;;;;;;0.77;0.50;;;20.60;48.70;;;;;;5025172;28;20032;-59
2021/12/02 02:03:00;;;;;;;0.40;0.40;;;20.60;48.70;;;;;;5020998;28;20041;-59
2021/12/02 02:05:27;;;;;;;0.70;0.50;;;20.60;48.70;;;;;;5026695;28;20515;-62
2021/12/02 02:08:22;;;;;;;0.30;0.30;;;20.60;48.70;;;;;;5027023;28;20029;-59
2021/12/02 02:10:49;;;;;;;0.52;0.40;;;20.60;48.70;;;;;;5021876;28;20112;-61
2021/12/02 02:13:17;;;;;;;0.55;0.45;;;20.60;48.70;;;;;;5031763;28;20033;-61
2021/12/02 02:15:47;;;;;;;0.45;0.40;;;20.60;48.80;;;;;;5029050;28;20029;-59
2021/12/02 02:18:21;;;;;;;0.30;0.30;;;20.60;48.80;;;;;;5029495;28;20104;-63
2021/12/02 02:21:02;;;;;;;0.40;0.40;;;20.60;48.80;;;;;;5023505;28;20056;-58
2021/12/02 02:23:32;;;;;;;0.38;0.30;;;20.60;48.80;;;;;;5028161;28;20041;-60
2021/12/02 02:25:59;;;;;;;0.63;0.47;;;20.50;48.80;;;;;;5021911;28;20067;-61
2021/12/02 02:28:26;;;;;;;0.63;0.50;;;20.50;48.80;;;;;;5024551;28;20055;-63
2021/12/02 02:30:52;;;;;;;0.38;0.30;;;20.50;48.80;;;;;;5026679;28;20095;-63
2021/12/02 02:33:20;;;;;;;0.30;0.30;;;20.50;48.80;;;;;;5027237;28;20021;-60
2021/12/02 02:35:46;;;;;;;0.60;0.40;;;20.50;48.80;;;;;;5026056;28;20437;-62
2021/12/02 02:38:16;;;;;;;0.50;0.40;;;20.50;48.90;;;;;;5025909;28;20031;-60
2021/12/02 02:40:44;;;;;;;;;;;20.50;48.80;;;;;;5021760;28;20099;-60
2021/12/02 02:43:19;;;;;;;0.40;0.40;;;20.50;49.40;;;;;;5024801;28;19909;-62
2021/12/02 02:45:45;;;;;;;0.30;0.30;;;20.50;48.90;;;;;;5027746;28;20079;-63
2021/12/02 02:48:11;;;;;;;0.57;0.50;;;20.50;48.90;;;;;;5024696;28;20468;-59
2021/12/02 02:50:37;;;;;;;0.30;0.30;;;20.40;48.90;;;;;;5026964;28;20044;-63
2021/12/02 02:53:04;;;;;;;0.30;0.30;;;20.50;48.90;;;;;;5028875;28;20018;-59
2021/12/02 02:55:32;;;;;;;0.30;0.30;;;20.40;48.90;;;;;;5025704;28;20537;-61
2021/12/02 03:00:33;;;;;;;0.47;0.40;;;20.40;48.90;;;;;;5028590;28;20377;-63
2021/12/02 03:03:21;;;;;;;0.30;0.30;;;20.40;48.90;;;;;;5025292;28;20052;-60
2021/12/02 03:06:23;;;;;;;0.43;0.43;;;20.40;48.90;;;;;;5024676;28;20682;-59
2021/12/02 03:08:54;;;;;;;0.55;0.45;;;20.40;48.90;;;;;;5027520;28;20101;-60
2021/12/02 03:11:22;;;;;;;0.63;0.50;;;20.40;48.90;;;;;;5023502;28;20172;-61
2021/12/02 03:13:53;;;;;;;0.63;0.40;;;20.40;49.00;;;;;;5025880;28;20083;-60
2021/12/02 03:19:04;;;;;;;0.38;0.38;;;20.40;49.00;;;;;;5029424;28;20040;-61
2021/12/02 03:21:30;;;;;;;0.68;0.40;;;20.40;49.00;;;;;;5023964;28;20120;-61
2021/12/02 03:24:00;;;;;;;0.45;0.40;;;20.40;49.00;;;;;;5027088;28;20560;-59
2021/12/02 03:26:28;;;;;;;0.38;0.30;;;20.40;49.50;;;;;;5023966;28;20151;-59
2021/12/02 03:28:54;;;;;;;0.32;0.32;;;20.40;49.00;;;;;;5026627;28;20132;-59
2021/12/02 03:31:21;;;;;;;0.40;0.30;;;20.30;49.00;;;;;;5025089;28;20041;-61
2021/12/02 03:33:47;;;;;;;0.50;0.50;;;20.30;49.00;;;;;;5025063;28;20083;-59
2021/12/02 03:36:14;;;;;;;0.40;0.35;;;20.30;49.00;;;;;;5022178;28;20034;-60
2021/12/02 03:38:40;;;;;;;0.32;0.32;;;20.30;49.00;;;;;;5024289;28;20018;-60
2021/12/02 03:41:06;;;;;;;0.50;0.40;;;20.40;49.10;;;;;;5024644;28;20033;-59
2021/12/02 03:43:40;;;;;;;0.40;0.40;;;20.30;49.00;;;;;;5025892;28;20025;-60
2021/12/02 03:46:08;;;;;;;0.30;0.30;;;20.30;49.10;;;;;;5027047;28;20095;-61
2021/12/02 03:48:35;;;;;;;0.55;0.30;;;20.30;49.10;;;;;;5024582;28;20451;-62
2021/12/02 03:51:02;;;;;;;0.38;0.30;;;20.30;49.10;;;;;;5024506;28;20037;-62
2021/12/02 03:53:27;;;;;;;0.60;0.40;;;20.30;49.10;;;;;;5027911;28;20605;-60
2021/12/02 03:55:53;;;;;;;0.52;0.40;;;20.30;49.10;;;;;;5024443;28;20029;-62
2021/12/02 03:58:19;;;;;;;0.43;0.30;;;20.30;49.10;;;;;;5024116;28;20028;-59
2021/12/02 04:00:44;;;;;;;0.55;0.40;;;20.30;49.10;;;;;;5027674;28;20041;-60
2021/12/02 04:03:10;;;;;;;0.52;0.38;;;20.30;49.10;;;;;;5025218;28;20055;-61
2021/12/02 04:05:35;;;;;;;0.70;0.50;;;20.30;49.10;;;;;;5025347;28;20363;-62
2021/12/02 04:08:01;;;;;;;0.55;0.43;;;20.30;49.10;;;;;;5023518;28;20143;-56
2021/12/02 04:10:27;;;;;;;0.30;0.30;;;20.30;49.10;;;;;;5024058;28;20024;-60
2021/12/02 04:15:34;;;;;;;0.40;0.40;;;20.20;49.10;;;;;;5026480;28;20108;-59
2021/12/02 04:17:59;;;;;;;0.70;0.40;;;20.20;49.10;;;;;;5022678;28;20129;-62
2021/12/02 04:20:26;;;;;;;0.32;0.32;;;20.20;49.20;;;;;;5023613;28;20449;-61
2021/12/02 04:22:53;;;;;;;0.30;0.30;;;20.20;49.20;;;;;;5027199;28;20128;-61
2021/12/02 04:25:20;;;;;;;0.43;0.38;;;20.20;49.20;;;;;;5022347;28;20223;-60
2021/12/02 04:27:46;;;;;;;0.30;0.30;;;20.20;49.20;;;;;;5021299;28;20466;-59
2021/12/02 04:30:15;;;;;;;0.55;0.30;;;20.20;49.20;;;;;;5019523;28;21775;-59
2021/12/02 04:32:41;;;;;;;0.45;0.40;;;20.20;49.20;;;;;;5023986;28;20029;-62
2021/12/02 04:35:08;;;;;;;0.57;0.40;;;20.20;49.20;;;;;;5021150;28;20021;-62
2021/12/02 04:37:34;;;;;;;0.40;0.30;;;20.20;49.30;;;;;;5021740;28;20071;-61
2021/12/02 04:39:59;;;;;;;0.30;0.30;;;20.20;49.20;;;;;;5016028;28;20041;-59
2021/12/02 04:42:25;;;;;;;0.30;0.30;;;20.10;49.20;;;;;;5023522;28;20025;-62
2021/12/02 04:44:51;;;;;;;0.30;0.30;;;20.20;49.30;;;;;;5026030;28;20025;-61
2021/12/02 04:47:17;;;;;;;0.85;0.30;;;20.20;49.20;;;;;;5023932;28;20109;-62
2021/12/02 04:49:43;;;;;;;0.30;0.30;;;20.10;49.70;;;;;;5023033;28;20516;-60
2021/12/02 04:52:09;;;;;;;0.55;0.30;;;20.20;49.20;;;;;;5026509;28;20025;-62
2021/12/02 04:54:35;;;;;;;0.30;0.30;;;20.20;49.20;;;;;;5017867;28;20033;-59
2021/12/02 04:57:01;;;;;;;0.30;0.30;;;20.10;49.20;;;;;;5025361;28;20067;-61
2021/12/02 04:59:26;;;;;;;0.40;0.40;;;20.10;49.20;;;;;;5017316;28;20413;-61
2021/12/02 05:01:52;;;;;;;0.30;0.30;;;20.10;49.20;;;;;;5020126;28;20121;-60
2021/12/02 05:04:18;;;;;;;0.43;0.30;;;20.10;49.30;;;;;;5024670;28;20025;-60
2021/12/02 05:06:44;;;;;;;0.38;0.30;;;20.10;49.40;;;;;;5020236;28;20094;-59
2021/12/02 05:09:12;;;;;;;0.30;0.30;;;20.10;49.40;;;;;;5021508;28;20672;-60
2021/12/02 05:11:38;;;;;;;0.25;0.25;;;20.10;49.40;;;;;;5023630;28;20055;-63
2021/12/02 05:14:05;;;;;;;0.30;0.30;;;20.10;49.40;;;;;;5021856;28;20037;-60
2021/12/02 05:16:30;;;;;;;0.38;0.38;;;20.10;49.40;;;;;;5024460;28;20025;-61
2021/12/02 05:18:56;;;;;;;0.40;0.40;;;20.10;49.40;;;;;;5023673;28;20057;-63
2021/12/02 05:21:22;;;;;;;0.65;0.35;;;20.10;49.40;;;;;;5025224;28;20040;-61
2021/12/02 05:23:53;;;;;;;0.35;0.32;;;20.10;50.00;;;;;;5021705;28;20052;-61
2021/12/02 05:26:20;;;;;;;0.50;0.40;;;20.10;49.50;;;;;;5014995;28;20588;-61
2021/12/02 05:28:46;;;;;;;0.55;0.43;;;20.10;49.50;;;;;;5020100;28;20033;-62
2021/12/02 05:31:11;;;;;;;0.40;0.30;;;20.10;49.50;;;;;;5018702;28;20037;-61
2021/12/02 05:33:37;;;;;;;0.45;0.40;;;20.10;49.50;;;;;;5022677;28;20117;-60
2021/12/02 05:36:03;;;;;;;0.30;0.30;;;20.10;49.50;;;;;;5022754;28;20096;-58
2021/12/02 05:38:28;;;;;;;0.65;0.40;;;20.10;49.60;;;;;;5023298;28;20112;-61
2021/12/02 05:40:54;;;;;;;0.50;0.40;;;20.10;49.50;;;;;;5019028;28;20159;-60
2021/12/02 05:43:19;;;;;;;0.70;0.40;;;20.10;49.60;;;;;;5021624;28;20037;-60
2021/12/02 05:45:45;;;;;;;0.47;0.47;;;20.10;49.60;;;;;;5025336;28;20689;-59
2021/12/02 05:48:11;;;;;;;0.32;0.30;;;20.10;49.60;;;;;;5026170;28;20034;-57
2021/12/02 05:50:37;;;;;;;0.40;0.30;;;20.10;49.60;;;;;;5029139;28;20224;-61
2021/12/02 05:53:02;;;;;;;0.40;0.40;;;20.10;49.60;;;;;;5026883;28;20028;-59
2021/12/02 05:55:28;;;;;;;0.30;0.30;;;20.00;49.50;;;;;;5028063;28;20120;-57
2021/12/02 05:57:54;;;;;;;0.35;0.35;;;20.00;49.60;;;;;;5024958;28;20743;-60
2021/12/02 06:00:19;;;;;;;0.38;0.30;;;20.10;49.60;;;;;;5027062;28;20025;-57
2021/12/02 06:02:45;;;;;;;0.30;0.30;;;20.00;49.60;;;;;;5027903;28;20071;-59
2021/12/02 06:05:16;;;;;;;0.30;0.30;;;20.00;49.60;;;;;;5021371;28;20025;-62
2021/12/02 06:07:43;;;;;;;0.82;0.50;;;20.00;49.60;;;;;;5022439;28;20124;-62
2021/12/02 06:10:09;;;;;;;0.43;0.40;;;20.00;49.60;;;;;;5020321;28;20041;-60
2021/12/02 06:12:35;;;;;;;0.40;0.35;;;20.00;49.60;;;;;;5026322;28;20125;-61
2021/12/02 06:15:00;;;;;;;0.30;0.30;;;20.00;49.60;;;;;;5028153;28;20112;-60
2021/12/02 06:17:26;;;;;;;0.40;0.40;;;20.00;49.60;;;;;;5028671;28;20029;-60
2021/12/02 06:19:52;;;;;;;1.27;0.40;;;20.00;49.70;;;;;;5024835;28;20597;-59
2021/12/02 06:22:17;;;;;;;1.38;0.50;;;20.10;50.70;;;;;;5028135;28;20457;-59
2021/12/02 06:24:44;;;;;;;1.58;0.60;;;20.40;51.00;;;;;;5029303;28;20675;-55
2021/12/02 06:27:10;;;;;;;0.80;0.40;;;20.70;51.00;;;;;;5029104;28;20022;-62
2021/12/02 06:29:37;;;;;;;0.50;0.30;;;20.90;50.70;;;;;;5025777;28;20029;-60
2021/12/02 06:32:04;;;;;;;1.10;0.50;;;21.20;50.70;;;;;;5024772;28;20187;-62
2021/12/02 06:34:33;;;;;;;1.65;0.50;;;21.40;50.70;;;;;;5023923;28;20025;-59
2021/12/02 06:36:58;;;;;;;0.90;0.40;;;21.60;50.60;;;;;;5025335;28;20199;-59
2021/12/02 06:39:24;;;;;;;0.50;0.45;;;21.70;50.40;;;;;;5029375;28;20116;-59
2021/12/02 06:41:49;;;;;;;0.57;0.43;;;21.90;50.30;;;;;;5023714;28;20044;-60
2021/12/02 06:44:15;;;;;;;0.90;0.52;;;22.00;50.20;;;;;;5033011;28;20029;-56
2021/12/02 06:46:41;;;;;;;0.57;0.40;;;22.10;50.10;;;;;;5026331;28;20037;-58
2021/12/02 06:49:06;;;;;;;0.30;0.30;;;22.30;50.20;;;;;;5025537;28;20104;-61
2021/12/02 06:51:32;;;;;;;0.20;0.20;;;22.30;49.80;;;;;;5027338;28;20095;-60
2021/12/02 06:53:58;;;;;;;0.22;0.22;;;22.20;49.80;;;;;;5027412;28;20029;-62
2021/12/02 06:56:23;;;;;;;0.40;0.40;;;22.10;49.60;;;;;;5024892;28;20048;-59
2021/12/02 06:58:49;;;;;;;0.50;0.50;;;22.20;50.20;;;;;;5029779;28;20029;-63
2021/12/02 07:01:15;;;;;;;0.40;0.40;;;22.40;50.60;;;;;;5025413;28;20057;-59
2021/12/02 07:03:40;;;;;;;0.35;0.35;;;22.70;49.60;;;;;;5024348;28;20030;-60
2021/12/02 07:06:06;;;;;;;0.30;0.30;;;22.90;49.30;;;;;;5028184;28;20080;-63
2021/12/02 07:08:32;;;;;;;0.40;0.40;;;23.10;48.90;;;;;;5028773;28;20037;-59
2021/12/02 07:10:59;;;;;;;0.30;0.30;;;23.10;48.70;;;;;;5024439;28;20022;-60
2021/12/02 07:13:25;;;;;;;0.70;0.40;;;23.00;48.70;;;;;;5040032;28;20504;-60
2021/12/02 07:15:52;;;;;;;0.30;0.30;;;22.90;48.80;;;;;;5029637;28;20029;-57
2021/12/02 07:18:18;;;;;;;0.28;0.28;;;22.90;49.00;;;;;;5028594;28;20028;-60
2021/12/02 07:20:47;;;;;;;0.32;0.30;;;22.80;49.00;;;;;;5028922;28;20029;-63
2021/12/02 07:23:16;;;;;;;0.30;0.30;;;22.80;49.00;;;;;;5029145;28;20433;-62
2021/12/02 07:25:42;;;;;;;;;;;22.80;49.50;;;;;;5026942;28;20025;-61
2021/12/02 07:28:09;;;;;;;0.40;0.40;;;23.00;50.00;;;;;;5027487;28;19938;-60
2021/12/02 07:30:35;;;;;;;1.25;0.38;;;23.40;49.30;;;;;;5027533;28;20476;-62
2021/12/02 07:33:03;;;;;;;0.47;0.45;;;23.80;48.60;;;;;;5031482;28;20033;-59
2021/12/02 07:35:28;;;;;;;1.25;0.40;;;24.20;47.90;;;;;;5033379;28;20727;-59
2021/12/02 07:37:58;;;;;;;0.32;0.32;;;24.50;47.40;;;;;;5024118;28;20037;-58
2021/12/02 07:40:25;;;;;;;0.30;0.30;;;24.70;47.10;;;;;;5019145;28;20121;-62
2021/12/02 07:42:52;;;;;;;0.22;0.20;;;24.60;47.10;;;;;;5028226;28;20167;-63
2021/12/02 07:45:19;;;;;;;0.20;0.20;;;24.40;47.20;;;;;;5026527;28;20052;-59
2021/12/02 07:47:45;;;;;;;0.20;0.20;;;24.20;47.60;;;;;;5029234;28;20033;-60
2021/12/02 07:50:13;;;;;;;0.30;0.30;;;24.10;48.00;;;;;;5024961;28;20022;-60
2021/12/02 07:52:52;;;;;;;0.30;0.30;;;24.00;47.90;;;;;;5027297;28;20013;-63
2021/12/02 07:55:19;;;;;;;0.40;0.40;;;23.90;47.80;;;;;;5024583;28;20022;-60
2021/12/02 07:57:46;;;;;;;0.40;0.40;;;23.90;48.00;;;;;;5025596;28;20064;-58
2021/12/02 08:00:14;;;;;;;0.30;0.25;;;23.80;48.00;;;;;;5023918;28;20034;-60
2021/12/02 08:02:47;;;;;;;0.50;0.40;;;23.80;48.00;;;;;;5025588;28;20037;-63
2021/12/02 08:05:14;;;;;;;0.30;0.30;;;23.80;48.10;;;;;;5027828;28;20029;-60
2021/12/02 08:07:41;;;;;;;0.30;0.30;;;23.80;48.10;;;;;;5025300;28;20029;-63
2021/12/02 08:10:09;;;;;;;0.40;0.38;;;23.80;48.10;;;;;;5019205;28;20033;-61
2021/12/02 08:12:36;;;;;;;0.40;0.40;;;23.80;47.30;;;;;;5023927;28;20109;-59
2021/12/02 08:15:05;;;;;;;0.52;0.40;;;23.70;44.70;;;;;;5026900;28;20584;-61
2021/12/02 08:17:30;;;;;;;0.40;0.40;;;23.70;45.20;;;;;;5025143;28;20061;-61
2021/12/02 08:19:56;;;;;;;0.40;0.40;;;23.70;45.50;;;;;;5024321;28;20311;-64
2021/12/02 08:22:21;;;;;;;0.40;0.40;;;23.60;45.80;;;;;;5025975;28;20087;-64
2021/12/02 08:24:47;;;;;;;0.50;0.40;;;23.60;46.00;;;;;;5023358;28;20325;-63
2021/12/02 08:27:12;;;;;;;0.50;0.40;;;23.70;46.20;;;;;;5024324;28;20025;-60
2021/12/02 08:29:38;;;;;;;0.40;0.40;;;23.70;46.30;;;;;;5022337;28;20083;-63
2021/12/02 08:32:04;;;;;;;0.40;0.40;;;23.70;46.50;;;;;;5025214;28;20111;-61
2021/12/02 08:34:30;;;;;;;0.63;0.60;;;23.70;46.60;;;;;;5029328;28;20535;-59
2021/12/02 08:36:56;;;;;;;1.08;0.50;;;23.70;46.70;;;;;;5025582;28;20021;-60
2021/12/02 08:39:25;;;;;;;0.40;0.40;;;23.70;46.80;;;;;;5022860;28;20840;-63
2021/12/02 08:41:53;;;;;;;0.60;0.50;;;23.70;46.90;;;;;;5025813;28;20044;-60
2021/12/02 08:44:19;;;;;;;0.40;0.40;;;23.70;47.10;;;;;;5028106;28;20037;-59
2021/12/02 08:46:47;;;;;;;0.63;0.40;;;23.70;47.30;;;;;;5019858;28;20662;-60
2021/12/02 08:49:13;;;;;;;0.65;0.40;;;23.70;47.50;;;;;;5024593;28;20762;-60
2021/12/02 08:51:38;;;;;;;0.85;0.30;;;23.70;47.50;;;;;;5021230;28;20026;-60
2021/12/02 08:54:04;;;;;;;18.42;5.97;;;23.70;48.40;;;;;;5021854;28;20456;-60
2021/12/02 08:56:30;;;;;;;25.38;8.80;;;23.80;48.20;;;;;;5021904;28;20034;-60
2021/12/02 08:58:56;;;;;;;22.60;8.55;;;23.80;48.00;;;;;;5024451;28;20045;-60
2021/12/02 09:01:22;;;;;;;21.45;7.90;;;23.70;48.00;;;;;;5020430;28;20044;-59
2021/12/02 09:03:47;;;;;;;19.45;7.57;;;23.80;48.40;;;;;;5027095;28;20033;-59
2021/12/02 09:06:14;;;;;;;19.30;7.30;;;23.80;49.30;;;;;;5026086;28;20115;-59
2021/12/02 09:08:41;;;;;;;20.80;7.28;;;23.80;48.70;;;;;;5022443;28;20037;-60
2021/12/02 09:11:07;;;;;;;17.30;6.53;;;23.80;48.70;;;;;;5020093;28;20124;-62
2021/12/02 09:13:33;;;;;;;18.40;6.95;;;23.80;48.80;;;;;;5023248;28;20025;-60
2021/12/02 09:15:59;;;;;;;15.18;6.22;;;23.80;48.70;;;;;;5024002;28;20501;-59
2021/12/02 09:18:24;;;;;;;15.45;6.32;;;23.80;48.70;;;;;;5025071;28;20064;-62
2021/12/02 09:20:50;;;;;;;17.38;6.50;;;23.80;48.70;;;;;;5028360;28;20095;-59
2021/12/02 09:23:16;;;;;;;18.40;6.60;;;23.80;49.20;;;;;;5033610;28;20045;-59
2021/12/02 09:25:42;;;;;;;16.27;6.15;;;23.90;49.30;;;;;;5025370;28;20797;-60
2021/12/02 09:28:09;;;;;;;17.05;6.03;;;23.90;49.30;;;;;;5030110;28;20473;-59
2021/12/02 09:30:35;;;;;;;13.77;5.90;;;23.90;49.40;;;;;;5027002;28;20040;-60
2021/12/02 09:33:00;;;;;;;13.88;6.07;;;23.90;49.30;;;;;;5030046;28;20033;-59
2021/12/02 09:35:26;;;;;;;14.10;5.95;;;23.90;49.10;;;;;;5030034;28;20026;-59
2021/12/02 09:37:51;;;;;;;13.65;5.68;;;23.90;49.40;;;;;;5023617;28;20034;-59
2021/12/02 09:40:18;;;;;;;14.20;5.97;;;23.90;49.20;;;;;;5018647;28;20839;-62
2021/12/02 09:42:45;;;;;;;15.48;5.57;;;23.90;49.10;;;;;;5026662;28;20044;-63
2021/12/02 09:45:11;;;;;;;13.60;5.65;;;23.90;49.30;;;;;;5023598;28;20040;-59
2021/12/02 09:47:41;;;;;;;5.07;2.30;;;23.90;48.10;;;;;;5030729;28;20025;-60
2021/12/02 09:50:13;;;;;;;3.53;1.60;;;23.90;45.40;;;;;;5026293;28;20178;-61
2021/12/02 09:52:40;;;;;;;3.40;1.50;;;23.90;44.60;;;;;;5028964;28;20400;-59
2021/12/02 09:55:20;;;;;;;5.00;1.60;;;23.80;44.60;;;;;;5024256;28;20359;-58
2021/12/02 09:57:50;;;;;;;;;;;23.80;44.60;;;;;;5027456;28;20196;-59
2021/12/02 10:00:19;;;;;;;4.35;1.75;;;23.70;44.40;;;;;;5028792;28;20579;-62
2021/12/02 10:03:05;;;;;;;3.30;1.55;;;23.70;44.50;;;;;;5027156;28;20112;-61
2021/12/02 10:05:47;;;;;;;3.42;1.52;;;23.70;44.50;;;;;;5032557;28;20298;-60
2021/12/02 10:08:26;;;;;;;2.90;1.25;;;23.60;44.40;;;;;;5024365;28;20569;-62
2021/12/02 10:11:03;;;;;;;3.88;1.70;;;23.60;44.50;;;;;;5025155;28;20494;-58
2021/12/02 10:13:39;;;;;;;3.58;1.50;;;23.60;44.40;;;;;;5026503;28;20039;-60
2021/12/02 10:16:07;;;;;;;2.50;1.30;;;23.60;44.40;;;;;;5037944;28;20144;-59
2021/12/02 10:18:54;;;;;;;2.40;1.20;;;23.50;44.40;;;;;;5025573;28;20045;-59
2021/12/02 10:21:28;;;;;;;2.33;1.30;;;23.50;44.50;;;;;;5025646;28;20045;-61
2021/12/02 10:23:53;;;;;;;3.28;1.60;;;23.50;44.60;;;;;;5027743;28;20204;-60
2021/12/02 10:26:22;;;;;;;4.32;1.52;;;23.50;44.60;;;;;;5027231;28;20545;-59
2021/12/02 10:28:51;;;;;;;3.72;1.40;;;23.50;44.90;;;;;;5026663;28;20038;-60
2021/12/02 10:31:23;;;;;;;2.88;1.33;;;23.50;45.00;;;;;;5032555;28;20059;-63
2021/12/02 10:33:59;;;;;;;2.60;1.30;;;23.60;44.90;;;;;;5033530;28;20029;-58
2021/12/02 10:36:29;;;;;;;3.05;1.38;;;23.60;44.80;;;;;;5035441;28;20021;-60
2021/12/02 10:39:06;;;;;;;3.05;1.50;;;23.70;44.70;;;;;;5023666;28;20144;-61
2021/12/02 10:41:32;;;;;;;2.53;1.30;;;23.70;44.60;;;;;;5020343;28;20094;-62
2021/12/02 10:44:17;;;;;;;2.63;1.40;;;23.80;44.50;;;;;;5027469;28;20029;-59
2021/12/02 10:46:52;;;;;;;2.08;1.27;;;23.70;44.40;;;;;;5027814;28;20026;-59
2021/12/02 10:49:19;;;;;;;3.00;1.40;;;23.70;44.30;;;;;;5023736;28;20091;-58
2021/12/02 10:51:50;;;;;;;2.97;1.40;;;23.60;44.50;;;;;;5025695;28;20022;-61
2021/12/02 10:54:26;;;;;;;2.80;1.30;;;23.60;44.60;;;;;;5024648;28;20370;-62
2021/12/02 10:56:57;;;;;;;2.80;1.40;;;23.60;44.30;;;;;;5029132;28;20094;-59
2021/12/02 10:59:30;;;;;;;2.58;1.40;;;23.50;44.40;;;;;;5027320;28;20394;-59
2021/12/02 11:02:08;;;;;;;2.45;1.20;;;23.50;44.50;;;;;;5026097;28;20049;-59
2021/12/02 11:04:37;;;;;;;2.30;1.20;;;23.50;44.60;;;;;;5023325;28;20035;-61
2021/12/02 11:07:05;;;;;;;2.55;1.38;;;23.50;44.70;;;;;;5030928;28;20082;-61
2021/12/02 11:09:33;;;;;;;1.60;1.00;;;23.50;44.70;;;;;;5029094;28;20071;-61
2021/12/02 11:12:08;;;;;;;2.65;1.20;;;23.40;44.70;;;;;;5033750;28;20586;-59
2021/12/02 11:14:39;;;;;;;2.67;1.20;;;23.40;44.70;;;;;;5043299;28;20022;-59
2021/12/02 11:17:15;;;;;;;1.77;1.10;;;23.40;44.80;;;;;;5031745;28;20420;-58
2021/12/02 11:19:45;;;;;;;2.80;1.30;;;23.40;44.80;;;;;;5034098;28;20120;-59
2021/12/02 11:22:14;;;;;;;2.40;1.10;;;23.40;44.70;;;;;;5027919;28;20038;-59
2021/12/02 11:24:41;;;;;;;3.00;1.25;;;23.40;44.70;;;;;;5033531;28;20056;-59
2021/12/02 11:27:12;;;;;;;1.92;1.10;;;23.40;44.80;;;;;;5026275;28;20080;-59
2021/12/02 11:29:51;;;;;;;2.75;1.40;;;23.40;45.00;;;;;;5024059;28;20106;-62
2021/12/02 11:32:25;;;;;;;2.53;1.20;;;23.40;45.00;;;;;;5024406;28;20103;-58
2021/12/02 11:35:08;;;;;;;1.85;1.00;;;23.40;44.90;;;;;;5031181;28;20777;-59
2021/12/02 11:37:35;;;;;;;2.15;1.10;;;23.40;45.10;;;;;;5028131;28;20037;-62
2021/12/02 11:40:08;;;;;;;1.60;0.93;;;23.40;45.00;;;;;;5018653;28;20057;-58
2021/12/02 11:42:37;;;;;;;1.80;1.10;;;23.40;44.90;;;;;;5024111;28;20021;-58
2021/12/02 11:45:04;;;;;;;1.85;1.10;;;23.40;45.10;;;;;;5026269;28;20045;-59
2021/12/02 11:47:30;;;;;;;2.45;1.00;;;23.40;45.20;;;;;;5021944;28;20043;-58
2021/12/02 11:49:56;;;;;;;1.90;1.20;;;23.40;45.40;;;;;;5024790;28;20033;-59
2021/12/02 11:52:21;;;;;;;2.05;1.05;;;23.30;45.10;;;;;;5026991;28;20393;-61
2021/12/02 11:54:47;;;;;;;2.40;1.05;;;23.30;45.40;;;;;;5021900;28;20434;-62
2021/12/02 11:57:14;;;;;;;1.70;0.90;;;23.30;45.60;;;;;;5026097;28;20044;-58
2021/12/02 11:59:40;;;;;;;1.33;0.77;;;23.30;45.90;;;;;;5023330;28;20026;-62
2021/12/02 12:02:06;;;;;;;1.15;0.73;;;23.40;46.60;;;;;;5022328;28;20742;-59
2021/12/02 12:04:35;;;;;;;1.63;1.00;;;23.40;46.90;;;;;;5022096;28;20029;-58
2021/12/02 12:07:12;;;;;;;1.70;1.00;;;23.40;47.10;;;;;;5025098;28;20072;-58
2021/12/02 12:09:38;;;;;;;1.23;0.73;;;23.40;47.20;;;;;;5021475;28;20057;-59
2021/12/02 12:12:05;;;;;;;1.73;0.93;;;23.50;47.60;;;;;;5019287;28;20057;-59
2021/12/02 12:14:36;;;;;;;1.75;0.90;;;23.50;48.50;;;;;;5023273;28;20467;-59
2021/12/02 12:17:07;;;;;;;1.30;0.77;;;23.50;48.20;;;;;;5020626;28;20054;-62
2021/12/02 12:19:42;;;;;;;1.98;1.00;;;23.50;48.30;;;;;;5025687;28;20109;-61
2021/12/02 12:22:23;;;;;;;1.52;0.82;;;23.50;49.10;;;;;;5019910;28;20121;-59
2021/12/02 12:24:54;;;;;;;1.80;0.90;;;23.60;49.10;;;;;;5021316;28;20448;-59
2021/12/02 12:27:29;;;;;;;1.50;0.80;;;23.60;48.90;;;;;;5027167;28;20119;-61
2021/12/02 12:30:01;;;;;;;1.85;0.85;;;23.70;50.20;;;;;;5020353;28;22181;-61
2021/12/02 12:33:02;;;;;;;2.30;0.90;;;23.70;49.50;;;;;;5022119;28;20747;-61
2021/12/02 12:38:02;;;;;;;2.05;0.88;;;23.80;50.20;;;;;;5022179;28;20034;-62
2021/12/02 12:40:29;;;;;;;1.48;0.80;;;23.70;49.60;;;;;;5019885;28;20072;-60
2021/12/02 12:42:58;;;;;;;0.90;0.70;;;23.80;51.10;;;;;;5023641;28;20154;-60
2021/12/02 12:45:42;;;;;;;1.33;0.70;;;23.80;50.60;;;;;;5026999;28;20036;-58
2021/12/02 12:48:25;;;;;;;1.10;0.77;;;23.80;51.10;;;;;;5024783;28;20519;-60
2021/12/02 12:50:51;;;;;;;0.75;0.50;;;23.90;51.00;;;;;;5023351;28;20033;-61
2021/12/02 12:53:17;;;;;;;1.42;0.80;;;23.90;51.50;;;;;;5018565;28;20037;-59
2021/12/02 12:56:02;;;;;;;1.48;0.70;;;24.00;51.80;;;;;;5024494;28;20695;-60
2021/12/02 12:58:30;;;;;;;1.45;0.82;;;24.00;51.50;;;;;;5021347;28;20067;-60
2021/12/02 13:00:59;;;;;;;1.83;0.98;;;24.00;48.50;;;;;;5018978;28;20532;-63
2021/12/02 13:03:31;;;;;;;2.50;0.90;;;23.90;47.30;;;;;;5021260;28;20638;-60
2021/12/02 13:06:01;;;;;;;2.75;0.90;;;23.90;47.30;;;;;;5021117;28;20053;-60
2021/12/02 13:08:37;;;;;;;1.95;0.90;;;23.90;47.70;;;;;;5024501;28;20057;-64
2021/12/02 13:11:12;;;;;;;1.67;0.90;;;23.90;48.60;;;;;;5017345;28;20022;-61